METAR Data
IDs: Format: Raw Decoded Include TAF

Data at: 0340 UTC 06 Dec 2019

METAR for:KPEA (Pella Muni, IA, US)
Text:KPEA 060335Z AUTO 34009KT 10SM CLR 05/02 A2999 RMK AO2 T00510019
Temperature: 5.1°C ( 41°F)
Dewpoint: 1.9°C ( 35°F) [RH = 80%]
Pressure (altimeter):29.99 inches Hg (1015.7 mb)
Winds:from the NNW (340 degrees) at 10 MPH (9 knots; 4.6 m/s)
Visibility:10 or more sm (16+ km)
Ceiling:at least 12,000 feet AGL
Clouds:sky clear below 12,000 feet AGL
QC Flag:automated observation with no human augmentation